Time;durP1;ratioP1;P1;durP2;ratioP2;P2;SDS_P1;SDS_P2;PMS_P1;PMS_P2;Temp;Humidity;BMP_temperature;BMP_pressure;BME280_temperature;BME280_humidity;BME280_pressure;Samples;Min_cycle;Max_cycle;Signal;HPM_P1;HPM_P2
2023/04/11 00:02:06;;;;;;;;;;;11.80;99.90;;;;;;8269012;28;19910;-77
2023/04/11 00:06:06;;;;;;;;;;;11.80;99.90;;;;;;8269832;28;20294;-76
2023/04/11 00:10:07;;;;;;;;;;;11.70;99.90;;;;;;8265826;28;20190;-77
2023/04/11 00:14:08;;;;;;;;;;;11.80;99.90;;;;;;8271879;28;19910;-77
2023/04/11 00:18:08;;;;;;;;;;;11.80;99.90;;;;;;8266102;28;19968;-76
2023/04/11 00:22:09;;;;;;;;;;;11.90;99.90;;;;;;8249461;28;20004;-76
2023/04/11 00:26:09;;;;;;;;;;;11.80;99.90;;;;;;8248305;28;19905;-76
2023/04/11 00:30:10;;;;;;;;;;;11.80;99.90;;;;;;8272113;28;19913;-76
2023/04/11 00:34:10;;;;;;;;;;;11.80;99.90;;;;;;8262439;28;19905;-75
2023/04/11 00:38:11;;;;;;;;;;;11.70;99.90;;;;;;8271897;28;19963;-76
2023/04/11 00:42:11;;;;;;;;;;;11.70;99.90;;;;;;8269232;28;19905;-76
2023/04/11 00:46:13;;;;;;;;;;;11.80;99.90;;;;;;8276535;28;19906;-76
2023/04/11 00:50:14;;;;;;;;;;;12.00;99.90;;;;;;8270393;28;19913;-77
2023/04/11 00:54:15;;;;;;;;;;;12.00;99.90;;;;;;8264662;28;19960;-76
2023/04/11 00:58:16;;;;;;;;;;;12.00;99.90;;;;;;8255199;28;20005;-76
2023/04/11 01:02:17;;;;;;;;;;;12.10;99.90;;;;;;8272396;28;19913;-75
2023/04/11 01:06:18;;;;;;;;;;;12.10;99.90;;;;;;8268218;28;19917;-77
2023/04/11 01:10:19;;;;;;;;;;;12.10;99.90;;;;;;8265406;28;19921;-76
2023/04/11 01:14:20;;;;;;;;;;;12.10;99.90;;;;;;8246527;28;19959;-76
2023/04/11 01:18:21;;;;;;;;;;;12.00;99.90;;;;;;8266145;28;19975;-77
2023/04/11 01:22:21;;;;;;;;;;;12.00;99.90;;;;;;8265828;28;19932;-76
2023/04/11 01:26:22;;;;;;;;;;;11.90;99.90;;;;;;8263878;28;20030;-76
2023/04/11 01:30:22;;;;;;;;;;;11.80;99.90;;;;;;8247205;28;19916;-76
2023/04/11 01:34:26;;;;;;;;;;;11.80;99.90;;;;;;8254448;28;20493;-76
2023/04/11 01:38:27;;;;;;;;;;;11.90;99.90;;;;;;8273312;28;19912;-76
2023/04/11 01:42:28;;;;;;;;;;;11.70;99.90;;;;;;8251549;28;19941;-76
2023/04/11 01:46:29;;;;;;;;;;;11.70;99.90;;;;;;8267404;28;20472;-76
2023/04/11 01:50:30;;;;;;;;;;;11.50;99.90;;;;;;8257520;28;19960;-76
2023/04/11 01:54:30;;;;;;;;;;;11.50;99.90;;;;;;8267413;28;19912;-75
2023/04/11 01:58:31;;;;;;;;;;;11.50;99.90;;;;;;8269440;28;20028;-76
2023/04/11 02:02:31;;;;;;;;;;;11.80;99.90;;;;;;8275440;28;19914;-75
2023/04/11 02:06:32;;;;;;;;;;;11.80;99.90;;;;;;8251580;28;19913;-76
2023/04/11 02:10:32;;;;;;;;;;;11.90;99.90;;;;;;8265096;28;19910;-75
2023/04/11 02:14:42;;;;;;;;;;;11.90;99.90;;;;;;8247416;28;19905;-76
2023/04/11 02:18:43;;;;;;;;;;;12.00;99.90;;;;;;8246981;28;19914;-76
2023/04/11 02:22:44;;;;;;;;;;;12.00;99.90;;;;;;8246953;28;19910;-75
2023/04/11 02:26:44;;;;;;;;;;;12.10;99.90;;;;;;8262453;28;19960;-76
2023/04/11 02:30:44;;;;;;;;;;;12.00;99.90;;;;;;8248848;28;19913;-76
2023/04/11 02:34:45;;;;;;;;;;;12.30;99.90;;;;;;8251239;28;19905;-76
2023/04/11 02:38:45;;;;;;;;;;;12.20;99.90;;;;;;8276445;28;20052;-76
2023/04/11 02:42:46;;;;;;;;;;;12.20;99.90;;;;;;8261395;28;19910;-77
2023/04/11 02:46:46;;;;;;;;;;;12.30;99.90;;;;;;8278024;28;19906;-76
2023/04/11 02:50:47;;;;;;;;;;;12.20;99.90;;;;;;8262357;28;19964;-76
2023/04/11 02:54:47;;;;;;;;;;;12.00;99.90;;;;;;8261947;28;19914;-76
2023/04/11 02:58:48;;;;;;;;;;;11.90;99.90;;;;;;8263911;28;20000;-76
2023/04/11 03:02:48;;;;;;;;;;;11.90;99.90;;;;;;8253084;28;19995;-76
2023/04/11 03:06:48;;;;;;;;;;;11.80;99.90;;;;;;8262053;28;19913;-76
2023/04/11 03:10:49;;;;;;;;;;;11.90;99.90;;;;;;8246408;28;19910;-76
2023/04/11 03:14:49;;;;;;;;;;;11.90;99.90;;;;;;8244300;28;19906;-76
2023/04/11 03:18:50;;;;;;;;;;;11.90;99.90;;;;;;8244371;28;19914;-76
2023/04/11 03:22:50;;;;;;;;;;;12.00;99.90;;;;;;8264173;28;19925;-76
2023/04/11 03:26:51;;;;;;;;;;;12.00;99.90;;;;;;8244609;28;19922;-76
2023/04/11 03:30:53;;;;;;;;;;;11.50;99.90;;;;;;8250115;28;19917;-75
2023/04/11 03:34:53;;;;;;;;;;;11.30;99.90;;;;;;8263141;28;19911;-76
2023/04/11 03:38:54;;;;;;;;;;;11.10;99.90;;;;;;8258752;28;20390;-75
2023/04/11 03:42:54;;;;;;;;;;;10.90;99.90;;;;;;8256971;28;19916;-76
2023/04/11 03:46:55;;;;;;;;;;;10.70;99.90;;;;;;8264641;28;19933;-75
2023/04/11 03:50:55;;;;;;;;;;;10.50;99.90;;;;;;8255098;28;19914;-75
2023/04/11 03:54:56;;;;;;;;;;;10.20;99.90;;;;;;8253446;28;19952;-76
2023/04/11 03:58:56;;;;;;;;;;;10.10;99.90;;;;;;8268779;28;20008;-76
2023/04/11 04:02:57;;;;;;;;;;;10.00;99.90;;;;;;8273857;28;19933;-75
2023/04/11 04:06:57;;;;;;;;;;;10.00;99.90;;;;;;8250847;28;19910;-76
2023/04/11 04:10:58;;;;;;;;;;;10.00;99.90;;;;;;8251678;28;20305;-75
2023/04/11 04:14:58;;;;;;;;;;;10.00;99.90;;;;;;8265669;28;20012;-76
2023/04/11 04:18:58;;;;;;;;;;;10.00;99.90;;;;;;8255317;28;19956;-75
2023/04/11 04:22:59;;;;;;;;;;;10.20;99.90;;;;;;8272017;28;19909;-75
2023/04/11 04:26:59;;;;;;;;;;;10.30;99.90;;;;;;8276912;28;19921;-76
2023/04/11 04:31:01;;;;;;;;;;;10.50;99.90;;;;;;8248852;28;19968;-77
2023/04/11 04:35:01;;;;;;;;;;;10.50;99.90;;;;;;8255706;28;19952;-75
2023/04/11 04:39:03;;;;;;;;;;;10.70;99.90;;;;;;8256378;28;20437;-75
2023/04/11 04:43:07;;;;;;;;;;;10.70;99.90;;;;;;8251855;28;19937;-76
2023/04/11 04:47:08;;;;;;;;;;;10.70;99.90;;;;;;8252113;28;19909;-75
2023/04/11 04:51:08;;;;;;;;;;;10.50;99.90;;;;;;8271019;28;20560;-77
2023/04/11 04:55:09;;;;;;;;;;;10.60;99.90;;;;;;8269495;28;19924;-75
2023/04/11 04:59:13;;;;;;;;;;;10.40;99.90;;;;;;8266133;28;20012;-74
2023/04/11 05:03:15;;;;;;;;;;;9.80;99.90;;;;;;8260322;28;19913;-76
2023/04/11 05:07:17;;;;;;;;;;;9.70;99.90;;;;;;8257941;28;19909;-75
2023/04/11 05:11:17;;;;;;;;;;;9.50;99.90;;;;;;8257495;28;19933;-76
2023/04/11 05:15:20;;;;;;;;;;;9.40;99.90;;;;;;8274323;28;19964;-76
2023/04/11 05:19:20;;;;;;;;;;;9.40;99.90;;;;;;8252837;28;19910;-76
2023/04/11 05:23:20;;;;;;;;;;;9.40;99.90;;;;;;8244692;28;20056;-76
2023/04/11 05:27:21;;;;;;;;;;;9.40;99.90;;;;;;8250440;28;19910;-76
2023/04/11 05:31:21;;;;;;;;;;;9.30;99.90;;;;;;8270419;28;19913;-77
2023/04/11 05:35:22;;;;;;;;;;;9.30;99.90;;;;;;8258086;28;19972;-77
2023/04/11 05:39:22;;;;;;;;;;;9.20;99.90;;;;;;8280020;28;19909;-76
2023/04/11 05:43:23;;;;;;;;;;;9.10;99.90;;;;;;8259704;28;19909;-76
2023/04/11 05:47:23;;;;;;;;;;;9.20;99.90;;;;;;8259930;28;20000;-76
2023/04/11 05:51:25;;;;;;;;;;;9.40;99.90;;;;;;8249297;28;19928;-75
2023/04/11 05:55:25;;;;;;;;;;;9.50;99.90;;;;;;8254235;28;19996;-75
2023/04/11 05:59:27;;;;;;;;;;;9.20;99.90;;;;;;8252151;28;19913;-75
2023/04/11 06:03:27;;;;;;;;;;;9.10;99.90;;;;;;8271810;28;19921;-77
2023/04/11 06:07:28;;;;;;;;;;;9.00;99.90;;;;;;8275630;28;20008;-79
2023/04/11 06:11:28;;;;;;;;;;;9.20;99.90;;;;;;8254451;28;20015;-82
2023/04/11 06:15:29;;;;;;;;;;;9.10;99.90;;;;;;8256337;28;19952;-81
2023/04/11 06:19:29;;;;;;;;;;;9.10;99.90;;;;;;8257384;28;19910;-80
2023/04/11 06:23:30;;;;;;;;;;;9.20;99.90;;;;;;8260350;28;19909;-81
2023/04/11 06:27:30;;;;;;;;;;;9.10;99.90;;;;;;8269317;28;19968;-83
2023/04/11 06:31:31;;;;;;;;;;;9.00;99.90;;;;;;8261209;28;20385;-80
2023/04/11 06:35:31;;;;;;;;;;;8.70;99.90;;;;;;8262194;28;20362;-81
2023/04/11 06:39:33;;;;;;;;;;;8.60;99.90;;;;;;8250285;28;20322;-80
2023/04/11 06:43:33;;;;;;;;;;;8.30;99.90;;;;;;8258933;28;19906;-79
2023/04/11 06:47:34;;;;;;;;;;;8.20;99.90;;;;;;8263343;28;20008;-79
2023/04/11 06:51:34;;;;;;;;;;;8.30;99.90;;;;;;8255422;28;19916;-78
2023/04/11 06:55:35;;;;;;;;;;;8.30;99.90;;;;;;8258860;28;19905;-79
2023/04/11 06:59:36;;;;;;;;;;;8.20;99.90;;;;;;8255100;28;19968;-81
2023/04/11 07:03:36;;;;;;;;;;;8.10;99.90;;;;;;8270436;28;19920;-79
2023/04/11 07:07:37;;;;;;;;;;;7.80;99.90;;;;;;8268198;28;19917;-80
2023/04/11 07:11:38;;;;;;;;;;;7.80;99.90;;;;;;8254221;28;19957;-80
2023/04/11 07:15:38;;;;;;;;;;;7.80;99.90;;;;;;8278301;28;19916;-80
2023/04/11 07:19:38;;;;;;;;;;;7.70;99.90;;;;;;8274168;28;19909;-80
2023/04/11 07:23:39;;;;;;;;;;;7.70;99.90;;;;;;8261108;28;19918;-80
2023/04/11 07:27:42;;;;;;;;;;;7.80;99.90;;;;;;8265989;28;19913;-80
2023/04/11 07:31:43;;;;;;;;;;;8.00;99.90;;;;;;8282713;28;20389;-79
2023/04/11 07:35:44;;;;;;;;;;;7.90;99.90;;;;;;8269880;28;19916;-78
2023/04/11 07:39:44;;;;;;;;;;;8.00;99.90;;;;;;8277552;28;19909;-80
2023/04/11 07:43:45;;;;;;;;;;;7.90;99.90;;;;;;8265850;28;19915;-80
2023/04/11 07:47:45;;;;;;;;;;;7.70;99.90;;;;;;8264014;28;19917;-81
2023/04/11 07:51:46;;;;;;;;;;;8.00;99.90;;;;;;8276103;28;19909;-81
2023/04/11 07:55:46;;;;;;;;;;;8.20;99.90;;;;;;8291659;28;19913;-84
2023/04/11 07:59:47;;;;;;;;;;;8.20;99.90;;;;;;8270748;28;19911;-85
2023/04/11 08:03:47;;;;;;;;;;;8.50;99.90;;;;;;8271957;28;19913;-85
2023/04/11 08:07:48;;;;;;;;;;;8.60;99.90;;;;;;8288005;28;19915;-84
2023/04/11 08:11:48;;;;;;;;;;;8.70;99.90;;;;;;8255530;28;19918;-87
2023/04/11 08:15:49;;;;;;;;;;;8.60;99.90;;;;;;8261968;28;19909;-85
2023/04/11 08:19:49;;;;;;;;;;;8.60;99.90;;;;;;8261876;28;19992;-84
2023/04/11 08:23:50;;;;;;;;;;;8.70;99.90;;;;;;8291845;28;19924;-83
2023/04/11 08:27:51;;;;;;;;;;;9.10;99.90;;;;;;8282563;28;19910;-84
2023/04/11 08:31:51;;;;;;;;;;;9.20;99.90;;;;;;8263953;28;19929;-84
2023/04/11 08:35:52;;;;;;;;;;;9.50;99.90;;;;;;8271411;28;20537;-84
2023/04/11 08:39:53;;;;;;;;;;;9.50;99.90;;;;;;8256560;28;19916;-83
2023/04/11 08:43:53;;;;;;;;;;;9.50;99.90;;;;;;8268393;28;19913;-83
2023/04/11 08:47:54;;;;;;;;;;;9.50;99.90;;;;;;8268507;28;19905;-83
2023/04/11 08:51:55;;;;;;;;;;;9.50;99.90;;;;;;8288399;28;19910;-83
2023/04/11 08:55:55;;;;;;;;;;;9.40;99.90;;;;;;8279817;28;19964;-82
2023/04/11 08:59:58;;;;;;;;;;;9.40;99.90;;;;;;8268564;28;19909;-83
2023/04/11 09:04:05;;;;;;;;;;;9.30;99.90;;;;;;8285625;28;19917;-82
2023/04/11 09:08:08;;;;;;;;;;;9.30;99.90;;;;;;8260466;28;19996;-82
2023/04/11 09:12:09;;;;;;;;;;;9.10;99.90;;;;;;8275387;28;20290;-81
2023/04/11 09:16:11;;;;;;;;;;;8.90;99.90;;;;;;8261197;28;20282;-80
2023/04/11 09:20:16;;;;;;;;;;;8.70;99.90;;;;;;8272089;28;19910;-80
2023/04/11 09:24:17;;;;;;;;;;;8.90;99.90;;;;;;8265306;28;20362;-81
2023/04/11 09:28:17;;;;;;;;;;;9.80;99.90;;;;;;8276379;28;19906;-80
2023/04/11 09:32:28;;;;;;;;;;;10.50;99.90;;;;;;8283413;28;19913;-78
2023/04/11 09:36:29;;;;;;;;;;;11.10;99.90;;;;;;8279548;28;19988;-79
2023/04/11 09:40:40;;;;;;;;;;;11.80;99.90;;;;;;8276725;28;19913;-79
2023/04/11 09:44:40;;;;;;;;;;;11.70;99.90;;;;;;8287108;28;19913;-78
2023/04/11 09:48:41;;;;;;;;;;;11.30;99.90;;;;;;8259860;28;19947;-78
2023/04/11 09:52:42;;;;;;;;;;;11.20;99.90;;;;;;8263929;28;19917;-78
2023/04/11 09:56:42;;;;;;;;;;;11.10;99.90;;;;;;8278543;28;19957;-80
2023/04/11 10:00:43;;;;;;;;;;;10.90;99.90;;;;;;8262679;28;19917;-78
2023/04/11 10:04:44;;;;;;;;;;;10.70;99.90;;;;;;8271455;28;19914;-78
2023/04/11 10:08:45;;;;;;;;;;;10.90;99.90;;;;;;8265249;28;19929;-79
2023/04/11 10:12:46;;;;;;;;;;;11.40;99.90;;;;;;8265865;28;19921;-79
2023/04/11 10:17:05;;;;;;;;;;;11.00;99.90;;;;;;8268621;28;19914;-79
2023/04/11 10:21:26;;;;;;;;;;;11.40;99.90;;;;;;8257311;28;19913;-79
2023/04/11 10:25:27;;;;;;;;;;;11.80;99.90;;;;;;8280220;28;19909;-80
2023/04/11 10:29:27;;;;;;;;;;;12.30;99.90;;;;;;8254214;28;20430;-79
2023/04/11 10:33:28;;;;;;;;;;;12.90;99.90;;;;;;8255369;28;19937;-79
2023/04/11 10:37:29;;;;;;;;;;;13.30;99.90;;;;;;8254035;28;19914;-77
2023/04/11 10:41:32;;;;;;;;;;;13.10;99.90;;;;;;8256644;28;20146;-78
2023/04/11 10:45:38;;;;;;;;;;;12.80;99.90;;;;;;8277884;28;20012;-79
2023/04/11 10:49:39;;;;;;;;;;;13.30;99.90;;;;;;8263027;28;20396;-78
2023/04/11 10:53:39;;;;;;;;;;;13.50;99.90;;;;;;8259881;28;19921;-79
2023/04/11 10:57:59;;;;;;;;;;;13.70;99.90;;;;;;8260059;28;19909;-78
2023/04/11 11:02:02;;;;;;;;;;;13.40;99.90;;;;;;8279052;28;19917;-78
2023/04/11 11:06:04;;;;;;;;;;;13.90;99.90;;;;;;8278214;28;19909;-78
2023/04/11 11:10:05;;;;;;;;;;;14.30;99.90;;;;;;8262217;28;19955;-78
2023/04/11 11:14:05;;;;;;;;;;;14.00;99.90;;;;;;8278288;28;20051;-78
2023/04/11 11:18:07;;;;;;;;;;;14.70;99.90;;;;;;8276617;28;19918;-78
2023/04/11 11:22:13;;;;;;;;;;;14.40;99.90;;;;;;8263624;28;20378;-79
2023/04/11 11:26:13;;;;;;;;;;;14.80;99.90;;;;;;8255887;28;20400;-78
2023/04/11 11:30:14;;;;;;;;;;;15.20;99.90;;;;;;8278399;28;19914;-78
2023/04/11 11:34:24;;;;;;;;;;;15.20;99.90;;;;;;8256686;28;19909;-78
2023/04/11 11:38:26;;;;;;;;;;;14.40;99.90;;;;;;8279251;28;19909;-79
2023/04/11 11:42:27;;;;;;;;;;;14.00;99.90;;;;;;8271376;28;19913;-78
2023/04/11 11:46:30;;;;;;;;;;;14.50;99.90;;;;;;8262238;28;20388;-78
2023/04/11 11:50:31;;;;;;;;;;;14.50;99.90;;;;;;8260552;28;19909;-78
2023/04/11 11:54:41;;;;;;;;;;;14.50;99.90;;;;;;8249575;28;19905;-78
2023/04/11 11:58:43;;;;;;;;;;;14.00;99.90;;;;;;8255898;28;19909;-78
2023/04/11 12:02:43;;;;;;;;;;;13.60;99.90;;;;;;8248530;28;19922;-78
2023/04/11 12:06:44;;;;;;;;;;;13.40;99.90;;;;;;8255434;28;19905;-78
2023/04/11 12:10:45;;;;;;;;;;;13.90;99.90;;;;;;8268674;28;20370;-78
2023/04/11 12:14:52;;;;;;;;;;;13.80;99.90;;;;;;8250504;28;19909;-78
2023/04/11 12:18:56;;;;;;;;;;;13.60;99.90;;;;;;8273512;28;20073;-77
2023/04/11 12:22:56;;;;;;;;;;;13.70;99.90;;;;;;8251012;28;19909;-78
2023/04/11 12:26:57;;;;;;;;;;;14.00;99.90;;;;;;8251259;28;19916;-78
2023/04/11 12:30:57;;;;;;;;;;;14.20;99.90;;;;;;8274307;28;19968;-78
2023/04/11 12:34:58;;;;;;;;;;;14.40;99.90;;;;;;8257021;28;19909;-78
2023/04/11 12:38:59;;;;;;;;;;;14.50;99.90;;;;;;8253014;28;20366;-77
2023/04/11 12:42:59;;;;;;;;;;;15.00;99.90;;;;;;8261683;28;19996;-78
2023/04/11 12:47:00;;;;;;;;;;;14.80;99.90;;;;;;8258624;28;19949;-77
2023/04/11 12:51:00;;;;;;;;;;;15.10;99.90;;;;;;8257256;28;19910;-78
2023/04/11 12:55:01;;;;;;;;;;;15.40;99.90;;;;;;8250265;28;19912;-78
2023/04/11 12:59:02;;;;;;;;;;;14.90;99.90;;;;;;8257556;28;20293;-78
2023/04/11 13:03:03;;;;;;;;;;;14.60;99.90;;;;;;8272313;28;19925;-78
2023/04/11 13:07:03;;;;;;;;;;;14.60;99.90;;;;;;8269607;28;19999;-78
2023/04/11 13:11:04;;;;;;;;;;;14.80;99.90;;;;;;8272673;28;19997;-78
2023/04/11 13:15:06;;;;;;;;;;;15.60;98.20;;;;;;8247321;28;20382;-78
2023/04/11 13:19:06;;;;;;;;;;;15.80;97.80;;;;;;8246457;28;20290;-78
2023/04/11 13:23:07;;;;;;;;;;;15.80;97.70;;;;;;8253254;28;19906;-79
2023/04/11 13:27:07;;;;;;;;;;;16.40;98.30;;;;;;8269395;28;19971;-78
2023/04/11 13:31:09;;;;;;;;;;;16.40;96.00;;;;;;8267209;28;20417;-78
2023/04/11 13:35:09;;;;;;;;;;;16.30;97.40;;;;;;8257376;28;20009;-78
2023/04/11 13:39:10;;;;;;;;;;;16.10;95.80;;;;;;8260027;28;19914;-77
2023/04/11 13:43:10;;;;;;;;;;;15.90;96.00;;;;;;8266628;28;19913;-78
2023/04/11 13:47:11;;;;;;;;;;;16.10;96.30;;;;;;8254329;28;19913;-79
2023/04/11 13:51:12;;;;;;;;;;;15.70;96.40;;;;;;8256787;28;19909;-79
2023/04/11 13:55:12;;;;;;;;;;;15.10;96.60;;;;;;8263480;28;19913;-78
2023/04/11 13:59:12;;;;;;;;;;;15.00;98.20;;;;;;8265402;28;19996;-78
2023/04/11 14:03:13;;;;;;;;;;;15.60;95.10;;;;;;8268991;28;19914;-79
2023/04/11 14:07:14;;;;;;;;;;;15.70;93.80;;;;;;8265158;28;20286;-78
2023/04/11 14:11:14;;;;;;;;;;;16.20;95.30;;;;;;8288977;23;19932;-82
2023/04/11 14:15:15;;;;;;;;;;;15.60;93.10;;;;;;8312054;28;20051;-83
2023/04/11 14:19:15;;;;;;;;;;;15.50;92.70;;;;;;8302356;28;19913;-82
2023/04/11 14:23:16;;;;;;;;;;;15.60;92.40;;;;;;8302215;28;19976;-82
2023/04/11 14:27:23;;;;;;;;;;;16.10;90.50;;;;;;8292834;28;19905;-82
2023/04/11 14:31:23;;;;;;;;;;;16.60;90.60;;;;;;8289261;28;19913;-83
2023/04/11 14:35:23;;;;;;;;;;;15.80;89.90;;;;;;8292201;28;19905;-82
2023/04/11 14:39:24;;;;;;;;;;;14.80;90.90;;;;;;8292522;28;19941;-83
2023/04/11 14:43:24;;;;;;;;;;;14.80;98.00;;;;;;8292582;28;19905;-83
2023/04/11 14:47:25;;;;;;;;;;;15.10;99.90;;;;;;8291929;28;19905;-83
2023/04/11 14:51:27;;;;;;;;;;;15.40;99.90;;;;;;8297715;28;20277;-83
2023/04/11 14:55:28;;;;;;;;;;;15.10;99.90;;;;;;8292648;28;19905;-83
2023/04/11 14:59:28;;;;;;;;;;;16.50;99.90;;;;;;8292120;28;20350;-83
2023/04/11 15:03:29;;;;;;;;;;;17.40;99.90;;;;;;8293497;28;19913;-83
2023/04/11 15:07:30;;;;;;;;;;;16.60;99.90;;;;;;8295205;28;19913;-83
2023/04/11 15:11:30;;;;;;;;;;;15.40;99.90;;;;;;8292735;28;19996;-83
2023/04/11 15:15:30;;;;;;;;;;;14.90;99.90;;;;;;8292125;28;19988;-83
2023/04/11 15:19:31;;;;;;;;;;;14.10;99.90;;;;;;8291802;28;20393;-82
2023/04/11 15:23:31;;;;;;;;;;;13.40;99.90;;;;;;8291434;28;20388;-83
2023/04/11 15:27:32;;;;;;;;;;;12.80;99.90;;;;;;8289866;28;19905;-81
2023/04/11 15:31:32;;;;;;;;;;;12.70;99.90;;;;;;8299281;28;19964;-82
2023/04/11 15:35:33;;;;;;;;;;;12.60;99.90;;;;;;8303796;28;19912;-82
2023/04/11 15:39:33;;;;;;;;;;;12.60;99.90;;;;;;8299414;28;19905;-82
2023/04/11 15:43:34;;;;;;;;;;;12.70;99.90;;;;;;8297410;28;19930;-82
2023/04/11 15:47:34;;;;;;;;;;;12.70;99.90;;;;;;8300900;28;19905;-82
2023/04/11 15:51:35;;;;;;;;;;;12.80;99.90;;;;;;8302092;28;19909;-82
2023/04/11 15:55:39;;;;;;;;;;;12.90;99.90;;;;;;8297707;28;19917;-82
2023/04/11 15:59:40;;;;;;;;;;;12.90;99.90;;;;;;8293662;28;19925;-83
2023/04/11 16:03:40;;;;;;;;;;;12.70;99.90;;;;;;8288217;28;19909;-82
2023/04/11 16:07:42;;;;;;;;;;;12.70;99.90;;;;;;8299517;28;19929;-83
2023/04/11 16:11:42;;;;;;;;;;;12.70;99.90;;;;;;8298332;28;19913;-82
2023/04/11 16:15:43;;;;;;;;;;;12.80;99.90;;;;;;8302385;28;19921;-82
2023/04/11 16:19:43;;;;;;;;;;;12.80;99.90;;;;;;8294391;28;20051;-83
2023/04/11 16:23:44;;;;;;;;;;;12.70;99.90;;;;;;8299100;28;20001;-82
2023/04/11 16:27:45;;;;;;;;;;;12.60;99.90;;;;;;8296137;28;19916;-84
2023/04/11 16:31:45;;;;;;;;;;;12.10;99.90;;;;;;8298959;28;19969;-82
2023/04/11 16:35:46;;;;;;;;;;;12.10;99.90;;;;;;8289401;28;20007;-82
2023/04/11 16:39:46;;;;;;;;;;;11.90;99.90;;;;;;8290801;28;19936;-83
2023/04/11 16:43:47;;;;;;;;;;;11.60;99.90;;;;;;8285447;28;19914;-83
2023/04/11 16:47:47;;;;;;;;;;;11.30;99.90;;;;;;8298252;28;19949;-83
2023/04/11 16:51:49;;;;;;;;;;;11.20;99.90;;;;;;8307215;28;20001;-83
2023/04/11 16:55:51;;;;;;;;;;;10.90;99.90;;;;;;8304676;28;19917;-83
2023/04/11 16:59:52;;;;;;;;;;;11.00;99.90;;;;;;8297502;28;19909;-83
2023/04/11 17:03:52;;;;;;;;;;;10.90;99.90;;;;;;8292970;28;19923;-83
2023/04/11 17:07:53;;;;;;;;;;;10.80;99.90;;;;;;8316613;28;19909;-82
2023/04/11 17:11:53;;;;;;;;;;;10.90;99.90;;;;;;8298657;28;20464;-83
2023/04/11 17:15:54;;;;;;;;;;;10.60;99.90;;;;;;8308931;28;19931;-82
2023/04/11 17:19:55;;;;;;;;;;;10.40;99.90;;;;;;8316731;28;20200;-82
2023/04/11 17:23:56;;;;;;;;;;;10.30;99.90;;;;;;8297210;28;19909;-83
2023/04/11 17:27:59;;;;;;;;;;;10.20;99.90;;;;;;8289605;28;19920;-83
2023/04/11 17:32:00;;;;;;;;;;;10.00;99.90;;;;;;8294569;28;19933;-82
2023/04/11 17:36:01;;;;;;;;;;;10.10;99.90;;;;;;8292329;28;19914;-84
2023/04/11 17:40:07;;;;;;;;;;;10.00;99.90;;;;;;8300080;28;19916;-83
2023/04/11 17:44:07;;;;;;;;;;;9.90;99.90;;;;;;8297292;28;20421;-83
2023/04/11 17:48:08;;;;;;;;;;;10.00;99.90;;;;;;8296941;28;19931;-83
2023/04/11 17:52:08;;;;;;;;;;;9.60;99.90;;;;;;8294840;28;19944;-84
2023/04/11 17:56:09;;;;;;;;;;;9.30;99.90;;;;;;8300035;28;19999;-83
2023/04/11 18:04:16;;;;;;;;;;;9.20;99.90;;;;;;8314428;28;19921;-83
2023/04/11 18:08:17;;;;;;;;;;;8.90;99.90;;;;;;8305284;28;19905;-83
2023/04/11 18:12:17;;;;;;;;;;;8.90;99.90;;;;;;8289499;28;19917;-82
2023/04/11 18:16:18;;;;;;;;;;;9.00;99.90;;;;;;8293175;28;19931;-82
2023/04/11 18:20:18;;;;;;;;;;;8.90;99.90;;;;;;8305079;28;20423;-83
2023/04/11 18:24:19;;;;;;;;;;;9.00;99.90;;;;;;8306442;28;19912;-83
2023/04/11 18:28:19;;;;;;;;;;;9.10;99.90;;;;;;8299728;28;20024;-82
2023/04/11 18:32:20;;;;;;;;;;;8.40;99.90;;;;;;8287595;28;19913;-82
2023/04/11 18:36:20;;;;;;;;;;;9.00;99.90;;;;;;8294530;28;20279;-83
2023/04/11 18:40:21;;;;;;;;;;;8.90;99.90;;;;;;8288375;28;20617;-83
2023/04/11 18:44:21;;;;;;;;;;;8.70;99.90;;;;;;8296018;28;19909;-83
2023/04/11 18:48:22;;;;;;;;;;;8.60;99.90;;;;;;8289984;28;20004;-83
2023/04/11 18:52:22;;;;;;;;;;;8.80;99.90;;;;;;8294447;28;19920;-83
2023/04/11 18:56:23;;;;;;;;;;;8.70;99.90;;;;;;8298908;28;19909;-83
2023/04/11 19:00:23;;;;;;;;;;;8.60;99.90;;;;;;8289769;28;19921;-83
2023/04/11 19:04:24;;;;;;;;;;;8.60;99.90;;;;;;8285606;28;19975;-83
2023/04/11 19:08:24;;;;;;;;;;;8.70;99.90;;;;;;8284031;28;19976;-83
2023/04/11 19:12:25;;;;;;;;;;;8.70;99.90;;;;;;8297146;28;19921;-84
2023/04/11 19:16:25;;;;;;;;;;;8.70;99.90;;;;;;8308338;28;19905;-83
2023/04/11 19:20:26;;;;;;;;;;;8.60;99.90;;;;;;8292155;28;20486;-83
2023/04/11 19:24:28;;;;;;;;;;;8.40;99.90;;;;;;8294676;28;19913;-83
2023/04/11 19:28:29;;;;;;;;;;;8.40;99.90;;;;;;8307205;28;19912;-82
2023/04/11 19:32:29;;;;;;;;;;;8.20;99.90;;;;;;8291863;28;20325;-82
2023/04/11 19:36:30;;;;;;;;;;;8.00;99.90;;;;;;8290936;28;19924;-84
2023/04/11 19:40:30;;;;;;;;;;;7.90;99.90;;;;;;8297581;28;19913;-84
2023/04/11 19:44:31;;;;;;;;;;;7.70;99.90;;;;;;8299508;28;19913;-83
2023/04/11 19:48:32;;;;;;;;;;;7.70;99.90;;;;;;8298458;28;19924;-83
2023/04/11 19:52:32;;;;;;;;;;;7.60;99.90;;;;;;8304672;28;19909;-83
2023/04/11 19:56:33;;;;;;;;;;;7.40;99.90;;;;;;8293518;28;19916;-83
2023/04/11 20:00:36;;;;;;;;;;;7.30;99.90;;;;;;8304906;28;19910;-82
2023/04/11 20:04:37;;;;;;;;;;;7.20;99.90;;;;;;8299589;28;19910;-84
2023/04/11 20:08:38;;;;;;;;;;;7.20;99.90;;;;;;8308733;28;20369;-83
2023/04/11 20:12:39;;;;;;;;;;;7.10;99.90;;;;;;8315362;28;19913;-83
2023/04/11 20:16:39;;;;;;;;;;;6.90;99.90;;;;;;8312450;28;19905;-83
2023/04/11 20:24:44;;;;;;;;;;;6.80;99.90;;;;;;8243791;28;19926;-78
2023/04/11 20:28:45;;;;;;;;;;;6.80;99.90;;;;;;8217188;28;20056;-78
2023/04/11 20:32:45;;;;;;;;;;;6.60;99.90;;;;;;8243123;28;19913;-78
2023/04/11 20:36:46;;;;;;;;;;;6.50;99.90;;;;;;8251497;28;19968;-78
2023/04/11 20:40:46;;;;;;;;;;;6.50;99.90;;;;;;8235176;28;19906;-78
2023/04/11 20:44:47;;;;;;;;;;;6.70;99.90;;;;;;8255801;28;19910;-78
2023/04/11 20:48:48;;;;;;;;;;;6.50;99.90;;;;;;8235377;28;19921;-78
2023/04/11 20:52:50;;;;;;;;;;;6.50;99.90;;;;;;8222507;28;20556;-78
2023/04/11 20:56:51;;;;;;;;;;;6.50;99.90;;;;;;8220554;28;19914;-77
2023/04/11 21:00:52;;;;;;;;;;;6.80;99.90;;;;;;8224373;28;19909;-78
2023/04/11 21:04:53;;;;;;;;;;;6.70;99.90;;;;;;8221471;28;21480;-78
2023/04/11 21:08:54;;;;;;;;;;;6.20;99.90;;;;;;8248728;28;19937;-78
2023/04/11 21:12:55;;;;;;;;;;;5.90;99.90;;;;;;8223815;28;19917;-78
2023/04/11 21:16:55;;;;;;;;;;;5.70;99.90;;;;;;8218692;28;20029;-79
2023/04/11 21:20:56;;;;;;;;;;;5.80;99.90;;;;;;8233403;28;20004;-78
2023/04/11 21:24:56;;;;;;;;;;;5.80;99.90;;;;;;8232058;28;19914;-78
2023/04/11 21:28:56;;;;;;;;;;;5.80;99.90;;;;;;8228352;28;19972;-78
2023/04/11 21:32:57;;;;;;;;;;;5.80;99.90;;;;;;8225026;28;20329;-78
2023/04/11 21:36:57;;;;;;;;;;;5.70;99.90;;;;;;8224913;28;20016;-78
2023/04/11 21:40:58;;;;;;;;;;;5.60;99.90;;;;;;8236526;28;19906;-78
2023/04/11 21:44:58;;;;;;;;;;;5.60;99.90;;;;;;8227289;28;20357;-79
2023/04/11 21:48:59;;;;;;;;;;;5.50;99.90;;;;;;8225564;28;20425;-78
2023/04/11 21:52:59;;;;;;;;;;;5.50;99.90;;;;;;8244547;28;20481;-78
2023/04/11 21:57:00;;;;;;;;;;;5.50;99.90;;;;;;8234783;28;19917;-77
2023/04/11 22:01:01;;;;;;;;;;;5.50;99.90;;;;;;8222616;28;19910;-78
2023/04/11 22:05:02;;;;;;;;;;;5.50;99.90;;;;;;8222483;28;20450;-77
2023/04/11 22:09:04;;;;;;;;;;;5.50;99.90;;;;;;8235822;28;19910;-78
2023/04/11 22:13:04;;;;;;;;;;;5.50;99.90;;;;;;8220941;28;20001;-77
2023/04/11 22:17:05;;;;;;;;;;;5.60;99.90;;;;;;8231372;28;20396;-77
2023/04/11 22:21:08;;;;;;;;;;;5.50;99.90;;;;;;8213215;28;19909;-77
2023/04/11 22:25:08;;;;;;;;;;;5.50;99.90;;;;;;8214377;28;20001;-77
2023/04/11 22:29:10;;;;;;;;;;;5.60;99.90;;;;;;8216779;28;20290;-77
2023/04/11 22:33:14;;;;;;;;;;;5.60;99.90;;;;;;8222028;28;19914;-77
2023/04/11 22:37:14;;;;;;;;;;;5.70;99.90;;;;;;8239745;28;19918;-77
2023/04/11 22:41:15;;;;;;;;;;;5.70;99.90;;;;;;8228350;28;20633;-77
2023/04/11 22:45:20;;;;;;;;;;;5.90;99.90;;;;;;8236770;28;20353;-77
2023/04/11 22:49:20;;;;;;;;;;;6.00;99.90;;;;;;8235040;28;19910;-77
2023/04/11 22:53:21;;;;;;;;;;;6.10;99.90;;;;;;8245159;28;19917;-77
2023/04/11 22:57:21;;;;;;;;;;;6.20;99.90;;;;;;8226540;28;19996;-77
2023/04/11 23:01:22;;;;;;;;;;;6.40;99.90;;;;;;8221520;28;19910;-77
2023/04/11 23:05:22;;;;;;;;;;;6.60;99.90;;;;;;8231959;28;20601;-77
2023/04/11 23:09:23;;;;;;;;;;;7.00;99.90;;;;;;8221196;28;19906;-76
2023/04/11 23:13:24;;;;;;;;;;;7.30;99.90;;;;;;8229545;28;19949;-77
2023/04/11 23:17:25;;;;;;;;;;;7.50;99.90;;;;;;8229815;28;19910;-77
2023/04/11 23:21:25;;;;;;;;;;;7.40;99.90;;;;;;8229517;28;19964;-77
2023/04/11 23:25:26;;;;;;;;;;;7.50;99.90;;;;;;8224738;28;20500;-77
2023/04/11 23:29:26;;;;;;;;;;;7.60;99.90;;;;;;8229427;28;20556;-76
2023/04/11 23:33:27;;;;;;;;;;;7.60;99.90;;;;;;8250978;28;19993;-77
2023/04/11 23:37:27;;;;;;;;;;;7.50;99.90;;;;;;8251873;28;20167;-76
2023/04/11 23:41:29;;;;;;;;;;;7.40;99.90;;;;;;8238287;28;19913;-76